sensor_id;sensor_type;location;lat;lon;timestamp;temperature;humidity
40023;DHT22;25713;-35.352;149.036;2023-02-18T00:02:12;23.00;86.80
40023;DHT22;25713;-35.352;149.036;2023-02-18T00:04:42;23.10;84.60
40023;DHT22;25713;-35.352;149.036;2023-02-18T00:07:11;23.20;83.90
40023;DHT22;25713;-35.352;149.036;2023-02-18T00:09:41;23.20;84.60
40023;DHT22;25713;-35.352;149.036;2023-02-18T00:12:10;23.20;85.70
40023;DHT22;25713;-35.352;149.036;2023-02-18T00:14:43;23.30;84.20
40023;DHT22;25713;-35.352;149.036;2023-02-18T00:17:13;23.40;84.20
40023;DHT22;25713;-35.352;149.036;2023-02-18T00:19:42;23.40;85.20
40023;DHT22;25713;-35.352;149.036;2023-02-18T00:22:11;23.40;84.00
40023;DHT22;25713;-35.352;149.036;2023-02-18T00:24:41;23.40;85.20
40023;DHT22;25713;-35.352;149.036;2023-02-18T00:27:10;23.50;83.50
40023;DHT22;25713;-35.352;149.036;2023-02-18T00:29:44;23.50;84.60
40023;DHT22;25713;-35.352;149.036;2023-02-18T00:32:13;23.50;85.00
40023;DHT22;25713;-35.352;149.036;2023-02-18T00:34:43;23.60;84.10
40023;DHT22;25713;-35.352;149.036;2023-02-18T00:37:13;23.60;84.30
40023;DHT22;25713;-35.352;149.036;2023-02-18T00:39:42;23.60;84.80
40023;DHT22;25713;-35.352;149.036;2023-02-18T00:42:12;23.60;84.40
40023;DHT22;25713;-35.352;149.036;2023-02-18T00:44:44;23.60;84.80
40023;DHT22;25713;-35.352;149.036;2023-02-18T00:47:14;23.80;81.20
40023;DHT22;25713;-35.352;149.036;2023-02-18T00:49:43;23.80;81.20
40023;DHT22;25713;-35.352;149.036;2023-02-18T00:52:13;23.80;82.00
40023;DHT22;25713;-35.352;149.036;2023-02-18T00:54:42;23.90;82.20
40023;DHT22;25713;-35.352;149.036;2023-02-18T00:57:12;24.00;80.80
40023;DHT22;25713;-35.352;149.036;2023-02-18T00:59:44;24.20;78.50
40023;DHT22;25713;-35.352;149.036;2023-02-18T01:02:13;24.20;78.80
40023;DHT22;25713;-35.352;149.036;2023-02-18T01:04:42;24.20;79.50
40023;DHT22;25713;-35.352;149.036;2023-02-18T01:07:13;24.30;77.90
40023;DHT22;25713;-35.352;149.036;2023-02-18T01:09:42;24.30;78.70
40023;DHT22;25713;-35.352;149.036;2023-02-18T01:12:12;24.20;80.30
40023;DHT22;25713;-35.352;149.036;2023-02-18T01:14:41;24.40;76.90
40023;DHT22;25713;-35.352;149.036;2023-02-18T01:17:13;24.50;75.50
40023;DHT22;25713;-35.352;149.036;2023-02-18T01:19:43;24.70;75.90
40023;DHT22;25713;-35.352;149.036;2023-02-18T01:22:13;24.60;76.70
40023;DHT22;25713;-35.352;149.036;2023-02-18T01:24:44;24.80;73.90
40023;DHT22;25713;-35.352;149.036;2023-02-18T01:27:13;24.80;73.60
40023;DHT22;25713;-35.352;149.036;2023-02-18T01:29:43;24.80;72.80
40023;DHT22;25713;-35.352;149.036;2023-02-18T01:32:15;25.10;70.40
40023;DHT22;25713;-35.352;149.036;2023-02-18T01:34:44;25.30;69.80
40023;DHT22;25713;-35.352;149.036;2023-02-18T01:37:14;25.30;70.50
40023;DHT22;25713;-35.352;149.036;2023-02-18T01:39:43;25.40;70.40
40023;DHT22;25713;-35.352;149.036;2023-02-18T01:42:18;25.50;69.80
40023;DHT22;25713;-35.352;149.036;2023-02-18T01:44:48;25.50;70.40
40023;DHT22;25713;-35.352;149.036;2023-02-18T01:47:21;25.50;68.30
40023;DHT22;25713;-35.352;149.036;2023-02-18T01:49:52;25.60;68.30
40023;DHT22;25713;-35.352;149.036;2023-02-18T01:52:24;25.50;70.10
40023;DHT22;25713;-35.352;149.036;2023-02-18T01:54:56;25.50;70.10
40023;DHT22;25713;-35.352;149.036;2023-02-18T01:57:31;25.70;67.80
40023;DHT22;25713;-35.352;149.036;2023-02-18T02:00:06;25.80;68.60
40023;DHT22;25713;-35.352;149.036;2023-02-18T02:02:46;25.90;68.30
40023;DHT22;25713;-35.352;149.036;2023-02-18T02:05:17;25.80;69.30
40023;DHT22;25713;-35.352;149.036;2023-02-18T02:07:47;25.70;70.30
40023;DHT22;25713;-35.352;149.036;2023-02-18T02:10:19;26.10;67.80
40023;DHT22;25713;-35.352;149.036;2023-02-18T02:12:55;26.30;67.10
40023;DHT22;25713;-35.352;149.036;2023-02-18T02:15:35;26.50;67.20
40023;DHT22;25713;-35.352;149.036;2023-02-18T02:18:24;26.50;66.20
40023;DHT22;25713;-35.352;149.036;2023-02-18T02:21:23;26.60;65.10
40023;DHT22;25713;-35.352;149.036;2023-02-18T02:24:17;26.70;63.70
40023;DHT22;25713;-35.352;149.036;2023-02-18T02:27:10;26.70;65.70
40023;DHT22;25713;-35.352;149.036;2023-02-18T02:36:05;26.90;65.40
40023;DHT22;25713;-35.352;149.036;2023-02-18T02:38:39;26.70;65.60
40023;DHT22;25713;-35.352;149.036;2023-02-18T02:41:16;26.50;67.50
40023;DHT22;25713;-35.352;149.036;2023-02-18T02:43:54;26.70;65.80
40023;DHT22;25713;-35.352;149.036;2023-02-18T02:46:32;26.60;66.30
40023;DHT22;25713;-35.352;149.036;2023-02-18T02:49:10;26.70;66.20
40023;DHT22;25713;-35.352;149.036;2023-02-18T02:51:47;27.10;64.30
40023;DHT22;25713;-35.352;149.036;2023-02-18T02:54:22;27.10;65.00
40023;DHT22;25713;-35.352;149.036;2023-02-18T02:57:05;27.30;64.60
40023;DHT22;25713;-35.352;149.036;2023-02-18T02:59:38;27.10;63.70
40023;DHT22;25713;-35.352;149.036;2023-02-18T03:02:22;26.90;64.30
40023;DHT22;25713;-35.352;149.036;2023-02-18T03:05:19;26.80;65.10
40023;DHT22;25713;-35.352;149.036;2023-02-18T03:08:07;27.10;64.30
40023;DHT22;25713;-35.352;149.036;2023-02-18T03:10:57;27.30;63.80
40023;DHT22;25713;-35.352;149.036;2023-02-18T03:13:39;27.20;64.40
40023;DHT22;25713;-35.352;149.036;2023-02-18T03:16:22;27.20;63.00
40023;DHT22;25713;-35.352;149.036;2023-02-18T03:18:59;27.40;63.00
40023;DHT22;25713;-35.352;149.036;2023-02-18T03:21:31;27.40;61.90
40023;DHT22;25713;-35.352;149.036;2023-02-18T03:24:09;27.30;63.20
40023;DHT22;25713;-35.352;149.036;2023-02-18T03:26:47;27.20;65.90
40023;DHT22;25713;-35.352;149.036;2023-02-18T03:29:19;27.20;62.60
40023;DHT22;25713;-35.352;149.036;2023-02-18T03:31:54;27.40;61.50
40023;DHT22;25713;-35.352;149.036;2023-02-18T03:34:29;27.10;62.40
40023;DHT22;25713;-35.352;149.036;2023-02-18T03:37:00;27.20;61.90
40023;DHT22;25713;-35.352;149.036;2023-02-18T03:39:34;27.30;60.40
40023;DHT22;25713;-35.352;149.036;2023-02-18T03:42:06;27.10;61.40
40023;DHT22;25713;-35.352;149.036;2023-02-18T03:44:35;27.00;61.90
40023;DHT22;25713;-35.352;149.036;2023-02-18T03:47:05;27.20;61.90
40023;DHT22;25713;-35.352;149.036;2023-02-18T03:49:34;27.20;61.60
40023;DHT22;25713;-35.352;149.036;2023-02-18T03:52:04;27.30;61.40
40023;DHT22;25713;-35.352;149.036;2023-02-18T03:54:35;27.10;62.80
40023;DHT22;25713;-35.352;149.036;2023-02-18T03:57:05;27.30;62.40
40023;DHT22;25713;-35.352;149.036;2023-02-18T03:59:34;27.40;62.50
40023;DHT22;25713;-35.352;149.036;2023-02-18T04:02:03;27.60;62.60
40023;DHT22;25713;-35.352;149.036;2023-02-18T04:04:33;27.60;63.20
40023;DHT22;25713;-35.352;149.036;2023-02-18T04:07:02;27.50;62.80
40023;DHT22;25713;-35.352;149.036;2023-02-18T04:09:33;27.60;62.30
40023;DHT22;25713;-35.352;149.036;2023-02-18T04:12:03;27.50;62.70
40023;DHT22;25713;-35.352;149.036;2023-02-18T04:14:33;27.70;63.10
40023;DHT22;25713;-35.352;149.036;2023-02-18T04:17:02;27.50;62.80
40023;DHT22;25713;-35.352;149.036;2023-02-18T04:19:31;27.30;63.80
40023;DHT22;25713;-35.352;149.036;2023-02-18T04:22:01;27.30;63.60
40023;DHT22;25713;-35.352;149.036;2023-02-18T04:24:31;27.20;64.00
40023;DHT22;25713;-35.352;149.036;2023-02-18T04:27:02;27.10;64.20
40023;DHT22;25713;-35.352;149.036;2023-02-18T04:29:31;27.00;64.40
40023;DHT22;25713;-35.352;149.036;2023-02-18T04:32:01;26.90;64.10
40023;DHT22;25713;-35.352;149.036;2023-02-18T04:34:30;27.00;62.20
40023;DHT22;25713;-35.352;149.036;2023-02-18T04:37:00;27.30;61.40
40023;DHT22;25713;-35.352;149.036;2023-02-18T04:39:30;27.50;61.00
40023;DHT22;25713;-35.352;149.036;2023-02-18T04:42:01;27.30;61.10
40023;DHT22;25713;-35.352;149.036;2023-02-18T04:44:30;27.30;59.80
40023;DHT22;25713;-35.352;149.036;2023-02-18T04:47:00;27.30;59.40
40023;DHT22;25713;-35.352;149.036;2023-02-18T04:49:29;27.10;59.80
40023;DHT22;25713;-35.352;149.036;2023-02-18T04:51:59;27.00;59.90
40023;DHT22;25713;-35.352;149.036;2023-02-18T04:54:28;27.00;58.30
40023;DHT22;25713;-35.352;149.036;2023-02-18T04:56:58;27.00;58.30
40023;DHT22;25713;-35.352;149.036;2023-02-18T04:59:29;26.90;58.90
40023;DHT22;25713;-35.352;149.036;2023-02-18T05:01:58;26.70;60.40
40023;DHT22;25713;-35.352;149.036;2023-02-18T05:04:28;26.70;61.00
40023;DHT22;25713;-35.352;149.036;2023-02-18T05:06:57;26.60;61.60
40023;DHT22;25713;-35.352;149.036;2023-02-18T05:09:27;26.60;62.20
40023;DHT22;25713;-35.352;149.036;2023-02-18T05:11:57;26.50;62.90
40023;DHT22;25713;-35.352;149.036;2023-02-18T05:14:28;26.40;63.10
40023;DHT22;25713;-35.352;149.036;2023-02-18T05:16:57;26.20;65.10
40023;DHT22;25713;-35.352;149.036;2023-02-18T05:19:27;26.10;66.40
40023;DHT22;25713;-35.352;149.036;2023-02-18T05:21:56;26.10;63.60
40023;DHT22;25713;-35.352;149.036;2023-02-18T05:24:26;26.20;63.60
40023;DHT22;25713;-35.352;149.036;2023-02-18T05:26:55;26.20;65.30
40023;DHT22;25713;-35.352;149.036;2023-02-18T05:29:24;26.10;65.90
40023;DHT22;25713;-35.352;149.036;2023-02-18T05:31:56;26.10;65.30
40023;DHT22;25713;-35.352;149.036;2023-02-18T05:34:26;26.10;66.60
40023;DHT22;25713;-35.352;149.036;2023-02-18T05:36:56;25.90;68.10
40023;DHT22;25713;-35.352;149.036;2023-02-18T05:39:25;25.80;68.10
40023;DHT22;25713;-35.352;149.036;2023-02-18T05:41:54;25.70;68.40
40023;DHT22;25713;-35.352;149.036;2023-02-18T05:44:24;25.70;68.50
40023;DHT22;25713;-35.352;149.036;2023-02-18T05:46:55;25.60;69.00
40023;DHT22;25713;-35.352;149.036;2023-02-18T05:49:26;25.50;68.90
40023;DHT22;25713;-35.352;149.036;2023-02-18T05:51:55;25.50;69.00
40023;DHT22;25713;-35.352;149.036;2023-02-18T05:54:26;25.50;69.70
40023;DHT22;25713;-35.352;149.036;2023-02-18T05:56:55;25.40;70.40
40023;DHT22;25713;-35.352;149.036;2023-02-18T05:59:25;25.40;69.30
40023;DHT22;25713;-35.352;149.036;2023-02-18T06:01:56;25.30;70.20
40023;DHT22;25713;-35.352;149.036;2023-02-18T06:04:26;25.30;69.30
40023;DHT22;25713;-35.352;149.036;2023-02-18T06:06:55;25.20;70.20
40023;DHT22;25713;-35.352;149.036;2023-02-18T06:09:25;25.20;69.30
40023;DHT22;25713;-35.352;149.036;2023-02-18T06:11:54;25.20;69.60
40023;DHT22;25713;-35.352;149.036;2023-02-18T06:14:24;25.20;68.90
40023;DHT22;25713;-35.352;149.036;2023-02-18T06:16:53;25.20;68.40
40023;DHT22;25713;-35.352;149.036;2023-02-18T06:19:25;25.20;69.40
40023;DHT22;25713;-35.352;149.036;2023-02-18T06:21:54;25.10;68.80
40023;DHT22;25713;-35.352;149.036;2023-02-18T06:24:24;25.10;68.50
40023;DHT22;25713;-35.352;149.036;2023-02-18T06:26:53;25.20;68.00
40023;DHT22;25713;-35.352;149.036;2023-02-18T06:29:23;25.20;68.60
40023;DHT22;25713;-35.352;149.036;2023-02-18T06:31:52;25.20;70.60
40023;DHT22;25713;-35.352;149.036;2023-02-18T06:34:23;25.10;68.70
40023;DHT22;25713;-35.352;149.036;2023-02-18T06:36:53;25.20;70.50
40023;DHT22;25713;-35.352;149.036;2023-02-18T06:39:23;25.10;69.90
40023;DHT22;25713;-35.352;149.036;2023-02-18T06:41:52;25.10;70.30
40023;DHT22;25713;-35.352;149.036;2023-02-18T06:44:22;25.10;69.30
40023;DHT22;25713;-35.352;149.036;2023-02-18T06:46:51;25.20;68.70
40023;DHT22;25713;-35.352;149.036;2023-02-18T06:49:20;25.20;69.10
40023;DHT22;25713;-35.352;149.036;2023-02-18T06:51:52;25.20;69.30
40023;DHT22;25713;-35.352;149.036;2023-02-18T06:54:22;25.20;69.30
40023;DHT22;25713;-35.352;149.036;2023-02-18T06:56:51;25.20;68.40
40023;DHT22;25713;-35.352;149.036;2023-02-18T06:59:20;25.20;68.40
40023;DHT22;25713;-35.352;149.036;2023-02-18T07:01:50;25.10;69.20
40023;DHT22;25713;-35.352;149.036;2023-02-18T07:04:19;25.10;69.60
40023;DHT22;25713;-35.352;149.036;2023-02-18T07:06:50;25.10;69.60
40023;DHT22;25713;-35.352;149.036;2023-02-18T07:09:20;25.10;70.50
40023;DHT22;25713;-35.352;149.036;2023-02-18T07:11:50;25.10;69.70
40023;DHT22;25713;-35.352;149.036;2023-02-18T07:14:19;25.10;71.30
40023;DHT22;25713;-35.352;149.036;2023-02-18T07:16:49;25.00;70.60
40023;DHT22;25713;-35.352;149.036;2023-02-18T07:19:18;25.00;70.70
40023;DHT22;25713;-35.352;149.036;2023-02-18T07:21:48;25.00;71.70
40023;DHT22;25713;-35.352;149.036;2023-02-18T07:24:19;25.00;70.30
40023;DHT22;25713;-35.352;149.036;2023-02-18T07:26:49;25.00;69.20
40023;DHT22;25713;-35.352;149.036;2023-02-18T07:29:18;25.00;70.70
40023;DHT22;25713;-35.352;149.036;2023-02-18T07:31:48;25.10;69.30
40023;DHT22;25713;-35.352;149.036;2023-02-18T07:34:17;25.10;70.60
40023;DHT22;25713;-35.352;149.036;2023-02-18T07:36:47;25.00;71.70
40023;DHT22;25713;-35.352;149.036;2023-02-18T07:39:18;25.00;72.10
40023;DHT22;25713;-35.352;149.036;2023-02-18T07:41:48;25.00;70.70
40023;DHT22;25713;-35.352;149.036;2023-02-18T07:44:18;25.00;69.10
40023;DHT22;25713;-35.352;149.036;2023-02-18T07:46:47;25.00;69.10
40023;DHT22;25713;-35.352;149.036;2023-02-18T07:49:17;25.10;69.00
40023;DHT22;25713;-35.352;149.036;2023-02-18T07:51:47;25.10;68.10
40023;DHT22;25713;-35.352;149.036;2023-02-18T07:54:20;25.20;68.70
40023;DHT22;25713;-35.352;149.036;2023-02-18T07:56:49;25.10;68.90
40023;DHT22;25713;-35.352;149.036;2023-02-18T07:59:19;25.10;70.30
40023;DHT22;25713;-35.352;149.036;2023-02-18T08:01:49;25.10;70.00
40023;DHT22;25713;-35.352;149.036;2023-02-18T08:04:18;25.10;69.30
40023;DHT22;25713;-35.352;149.036;2023-02-18T08:06:48;25.10;69.70
40023;DHT22;25713;-35.352;149.036;2023-02-18T08:09:20;25.10;70.80
40023;DHT22;25713;-35.352;149.036;2023-02-18T08:11:49;25.00;71.70
40023;DHT22;25713;-35.352;149.036;2023-02-18T08:14:19;25.00;70.70
40023;DHT22;25713;-35.352;149.036;2023-02-18T08:16:48;25.00;70.40
40023;DHT22;25713;-35.352;149.036;2023-02-18T08:19:17;25.00;70.80
40023;DHT22;25713;-35.352;149.036;2023-02-18T08:21:47;24.90;72.20
40023;DHT22;25713;-35.352;149.036;2023-02-18T08:24:16;25.00;70.50
40023;DHT22;25713;-35.352;149.036;2023-02-18T08:26:48;25.00;70.10
40023;DHT22;25713;-35.352;149.036;2023-02-18T08:29:17;25.00;70.70
40023;DHT22;25713;-35.352;149.036;2023-02-18T08:31:46;25.00;70.50
40023;DHT22;25713;-35.352;149.036;2023-02-18T08:34:16;25.00;69.50
40023;DHT22;25713;-35.352;149.036;2023-02-18T08:36:45;24.90;71.40
40023;DHT22;25713;-35.352;149.036;2023-02-18T08:39:15;24.90;72.60
40023;DHT22;25713;-35.352;149.036;2023-02-18T08:41:46;24.90;73.50
40023;DHT22;25713;-35.352;149.036;2023-02-18T08:44:16;24.80;73.60
40023;DHT22;25713;-35.352;149.036;2023-02-18T08:46:45;24.80;74.50
40023;DHT22;25713;-35.352;149.036;2023-02-18T08:49:15;24.80;71.80
40023;DHT22;25713;-35.352;149.036;2023-02-18T08:51:44;24.80;68.80
40023;DHT22;25713;-35.352;149.036;2023-02-18T08:54:14;24.80;68.00
40023;DHT22;25713;-35.352;149.036;2023-02-18T08:56:43;24.80;67.00
40023;DHT22;25713;-35.352;149.036;2023-02-18T08:59:14;24.80;68.30
40023;DHT22;25713;-35.352;149.036;2023-02-18T09:01:44;24.90;66.80
40023;DHT22;25713;-35.352;149.036;2023-02-18T09:04:13;24.80;67.40
40023;DHT22;25713;-35.352;149.036;2023-02-18T09:06:43;24.80;68.80
40023;DHT22;25713;-35.352;149.036;2023-02-18T09:09:12;24.70;67.50
40023;DHT22;25713;-35.352;149.036;2023-02-18T09:11:42;24.70;67.00
40023;DHT22;25713;-35.352;149.036;2023-02-18T09:14:14;24.60;68.90
40023;DHT22;25713;-35.352;149.036;2023-02-18T09:16:43;24.60;70.00
40023;DHT22;25713;-35.352;149.036;2023-02-18T09:19:12;24.60;70.10
40023;DHT22;25713;-35.352;149.036;2023-02-18T09:21:42;24.50;69.50
40023;DHT22;25713;-35.352;149.036;2023-02-18T09:24:12;24.50;70.40
40023;DHT22;25713;-35.352;149.036;2023-02-18T09:26:41;24.50;68.40
40023;DHT22;25713;-35.352;149.036;2023-02-18T09:29:11;24.40;69.50
40023;DHT22;25713;-35.352;149.036;2023-02-18T09:31:43;24.40;69.80
40023;DHT22;25713;-35.352;149.036;2023-02-18T09:34:13;24.40;69.60
40023;DHT22;25713;-35.352;149.036;2023-02-18T09:36:42;24.40;70.20
40023;DHT22;25713;-35.352;149.036;2023-02-18T09:39:12;24.40;69.80
40023;DHT22;25713;-35.352;149.036;2023-02-18T09:41:43;24.40;69.70
40023;DHT22;25713;-35.352;149.036;2023-02-18T09:44:17;24.30;70.40
40023;DHT22;25713;-35.352;149.036;2023-02-18T09:46:53;24.30;73.10
40023;DHT22;25713;-35.352;149.036;2023-02-18T09:49:25;24.30;73.90
40023;DHT22;25713;-35.352;149.036;2023-02-18T09:51:54;24.20;73.70
40023;DHT22;25713;-35.352;149.036;2023-02-18T09:54:25;24.20;74.00
40023;DHT22;25713;-35.352;149.036;2023-02-18T09:56:55;24.20;73.20
40023;DHT22;25713;-35.352;149.036;2023-02-18T09:59:26;24.20;72.50
40023;DHT22;25713;-35.352;149.036;2023-02-18T10:01:59;24.20;71.80
40023;DHT22;25713;-35.352;149.036;2023-02-18T10:04:34;24.20;73.40
40023;DHT22;25713;-35.352;149.036;2023-02-18T10:07:05;24.10;71.80
40023;DHT22;25713;-35.352;149.036;2023-02-18T10:09:38;24.10;72.80
40023;DHT22;25713;-35.352;149.036;2023-02-18T10:12:15;24.00;72.60
40023;DHT22;25713;-35.352;149.036;2023-02-18T10:14:49;24.00;72.30
40023;DHT22;25713;-35.352;149.036;2023-02-18T10:17:22;24.00;72.70
40023;DHT22;25713;-35.352;149.036;2023-02-18T10:19:53;24.00;70.30
40023;DHT22;25713;-35.352;149.036;2023-02-18T10:22:25;24.00;69.60
40023;DHT22;25713;-35.352;149.036;2023-02-18T10:24:56;24.00;71.80
40023;DHT22;25713;-35.352;149.036;2023-02-18T10:27:28;23.90;71.10
40023;DHT22;25713;-35.352;149.036;2023-02-18T10:30:05;23.90;72.10
40023;DHT22;25713;-35.352;149.036;2023-02-18T10:32:43;23.90;71.60
40023;DHT22;25713;-35.352;149.036;2023-02-18T10:35:14;23.90;72.60
40023;DHT22;25713;-35.352;149.036;2023-02-18T10:37:55;23.80;72.30
40023;DHT22;25713;-35.352;149.036;2023-02-18T10:40:29;23.80;73.50
40023;DHT22;25713;-35.352;149.036;2023-02-18T10:43:10;23.80;74.10
40023;DHT22;25713;-35.352;149.036;2023-02-18T10:45:47;23.70;75.10
40023;DHT22;25713;-35.352;149.036;2023-02-18T10:48:34;23.70;76.20
40023;DHT22;25713;-35.352;149.036;2023-02-18T10:51:13;23.70;76.90
40023;DHT22;25713;-35.352;149.036;2023-02-18T10:53:45;23.70;78.00
40023;DHT22;25713;-35.352;149.036;2023-02-18T10:56:37;23.60;79.20
40023;DHT22;25713;-35.352;149.036;2023-02-18T10:59:12;23.60;80.10
40023;DHT22;25713;-35.352;149.036;2023-02-18T11:01:43;23.50;80.80
40023;DHT22;25713;-35.352;149.036;2023-02-18T11:04:18;23.50;81.20
40023;DHT22;25713;-35.352;149.036;2023-02-18T11:06:49;23.50;81.30
40023;DHT22;25713;-35.352;149.036;2023-02-18T11:09:29;23.50;81.30
40023;DHT22;25713;-35.352;149.036;2023-02-18T11:12:03;23.50;81.60
40023;DHT22;25713;-35.352;149.036;2023-02-18T11:14:41;23.50;82.20
40023;DHT22;25713;-35.352;149.036;2023-02-18T11:17:18;23.50;82.30
40023;DHT22;25713;-35.352;149.036;2023-02-18T11:19:57;23.50;82.30
40023;DHT22;25713;-35.352;149.036;2023-02-18T11:22:29;23.50;82.40
40023;DHT22;25713;-35.352;149.036;2023-02-18T11:25:00;23.50;82.60
40023;DHT22;25713;-35.352;149.036;2023-02-18T11:27:37;23.50;83.20
40023;DHT22;25713;-35.352;149.036;2023-02-18T11:30:18;23.50;83.20
40023;DHT22;25713;-35.352;149.036;2023-02-18T11:32:50;23.50;83.20
40023;DHT22;25713;-35.352;149.036;2023-02-18T11:35:25;23.50;83.40
40023;DHT22;25713;-35.352;149.036;2023-02-18T11:37:57;23.50;83.50
40023;DHT22;25713;-35.352;149.036;2023-02-18T11:40:27;23.50;83.60
40023;DHT22;25713;-35.352;149.036;2023-02-18T11:43:04;23.50;83.50
40023;DHT22;25713;-35.352;149.036;2023-02-18T11:45:35;23.40;83.50
40023;DHT22;25713;-35.352;149.036;2023-02-18T11:48:14;23.40;83.90
40023;DHT22;25713;-35.352;149.036;2023-02-18T11:50:46;23.40;83.80
40023;DHT22;25713;-35.352;149.036;2023-02-18T11:53:29;23.40;83.80
40023;DHT22;25713;-35.352;149.036;2023-02-18T11:56:00;23.40;84.20
40023;DHT22;25713;-35.352;149.036;2023-02-18T11:58:37;23.40;84.00
40023;DHT22;25713;-35.352;149.036;2023-02-18T12:01:14;23.40;84.10
40023;DHT22;25713;-35.352;149.036;2023-02-18T12:03:46;23.30;84.30
40023;DHT22;25713;-35.352;149.036;2023-02-18T12:06:23;23.30;84.50
40023;DHT22;25713;-35.352;149.036;2023-02-18T12:08:56;23.30;85.20
40023;DHT22;25713;-35.352;149.036;2023-02-18T12:11:30;23.30;84.30
40023;DHT22;25713;-35.352;149.036;2023-02-18T12:14:01;23.20;84.70
40023;DHT22;25713;-35.352;149.036;2023-02-18T12:16:37;23.20;84.60
40023;DHT22;25713;-35.352;149.036;2023-02-18T12:19:26;23.30;84.50
40023;DHT22;25713;-35.352;149.036;2023-02-18T12:22:07;23.30;85.40
40023;DHT22;25713;-35.352;149.036;2023-02-18T12:24:51;23.30;85.40
40023;DHT22;25713;-35.352;149.036;2023-02-18T12:27:27;23.30;85.40
40023;DHT22;25713;-35.352;149.036;2023-02-18T12:30:24;23.30;85.40
40023;DHT22;25713;-35.352;149.036;2023-02-18T12:33:03;23.30;85.70
40023;DHT22;25713;-35.352;149.036;2023-02-18T12:35:46;23.30;85.70
40023;DHT22;25713;-35.352;149.036;2023-02-18T12:38:47;23.30;85.60
40023;DHT22;25713;-35.352;149.036;2023-02-18T12:41:29;23.30;85.90
40023;DHT22;25713;-35.352;149.036;2023-02-18T12:44:10;23.30;85.90
40023;DHT22;25713;-35.352;149.036;2023-02-18T12:47:00;23.30;85.80
40023;DHT22;25713;-35.352;149.036;2023-02-18T12:50:00;23.20;86.10
40023;DHT22;25713;-35.352;149.036;2023-02-18T12:52:40;23.20;86.10
40023;DHT22;25713;-35.352;149.036;2023-02-18T12:55:37;23.20;86.40
40023;DHT22;25713;-35.352;149.036;2023-02-18T12:58:17;23.20;86.70
40023;DHT22;25713;-35.352;149.036;2023-02-18T13:04:00;23.20;86.50
40023;DHT22;25713;-35.352;149.036;2023-02-18T13:09:38;23.20;86.50
40023;DHT22;25713;-35.352;149.036;2023-02-18T13:12:16;23.20;86.70
40023;DHT22;25713;-35.352;149.036;2023-02-18T13:14:48;23.10;86.70
40023;DHT22;25713;-35.352;149.036;2023-02-18T13:17:21;23.10;86.50
40023;DHT22;25713;-35.352;149.036;2023-02-18T13:19:55;23.10;86.60
40023;DHT22;25713;-35.352;149.036;2023-02-18T13:22:27;23.00;86.40
40023;DHT22;25713;-35.352;149.036;2023-02-18T13:24:58;22.90;86.00
40023;DHT22;25713;-35.352;149.036;2023-02-18T13:27:35;23.00;86.50
40023;DHT22;25713;-35.352;149.036;2023-02-18T13:30:19;22.90;86.50
40023;DHT22;25713;-35.352;149.036;2023-02-18T13:32:58;23.00;87.30
40023;DHT22;25713;-35.352;149.036;2023-02-18T13:35:32;23.00;86.70
40023;DHT22;25713;-35.352;149.036;2023-02-18T13:38:15;22.90;85.70
40023;DHT22;25713;-35.352;149.036;2023-02-18T13:40:48;22.90;86.40
40023;DHT22;25713;-35.352;149.036;2023-02-18T13:43:28;22.90;86.30
40023;DHT22;25713;-35.352;149.036;2023-02-18T13:46:08;23.00;86.50
40023;DHT22;25713;-35.352;149.036;2023-02-18T13:48:43;22.90;86.70
40023;DHT22;25713;-35.352;149.036;2023-02-18T13:51:15;22.90;87.10
40023;DHT22;25713;-35.352;149.036;2023-02-18T13:53:50;22.90;86.60
40023;DHT22;25713;-35.352;149.036;2023-02-18T13:56:22;22.90;86.70
40023;DHT22;25713;-35.352;149.036;2023-02-18T13:59:01;22.90;86.80
40023;DHT22;25713;-35.352;149.036;2023-02-18T14:01:43;22.90;86.10
40023;DHT22;25713;-35.352;149.036;2023-02-18T14:04:36;22.90;87.10
40023;DHT22;25713;-35.352;149.036;2023-02-18T14:07:46;22.90;87.30
40023;DHT22;25713;-35.352;149.036;2023-02-18T14:10:40;22.90;87.10
40023;DHT22;25713;-35.352;149.036;2023-02-18T14:13:25;22.80;86.70
40023;DHT22;25713;-35.352;149.036;2023-02-18T14:16:08;22.90;87.10
40023;DHT22;25713;-35.352;149.036;2023-02-18T14:18:59;22.90;86.70
40023;DHT22;25713;-35.352;149.036;2023-02-18T14:21:42;22.80;86.20
40023;DHT22;25713;-35.352;149.036;2023-02-18T14:24:12;22.80;86.80
40023;DHT22;25713;-35.352;149.036;2023-02-18T14:26:46;22.80;86.80
40023;DHT22;25713;-35.352;149.036;2023-02-18T14:29:25;22.80;86.70
40023;DHT22;25713;-35.352;149.036;2023-02-18T14:32:01;22.80;87.10
40023;DHT22;25713;-35.352;149.036;2023-02-18T14:38:01;22.80;87.70
40023;DHT22;25713;-35.352;149.036;2023-02-18T14:43:49;22.70;87.80
40023;DHT22;25713;-35.352;149.036;2023-02-18T14:46:29;22.70;88.00
40023;DHT22;25713;-35.352;149.036;2023-02-18T15:52:28;22.20;87.00
40023;DHT22;25713;-35.352;149.036;2023-02-18T15:55:02;22.10;87.10
40023;DHT22;25713;-35.352;149.036;2023-02-18T15:57:33;22.10;87.20
40023;DHT22;25713;-35.352;149.036;2023-02-18T16:00:10;22.10;87.20
40023;DHT22;25713;-35.352;149.036;2023-02-18T16:02:53;22.20;87.30
40023;DHT22;25713;-35.352;149.036;2023-02-18T16:05:27;22.20;87.10
40023;DHT22;25713;-35.352;149.036;2023-02-18T16:08:09;22.20;86.70
40023;DHT22;25713;-35.352;149.036;2023-02-18T16:10:45;22.20;86.30
40023;DHT22;25713;-35.352;149.036;2023-02-18T16:13:16;22.20;86.00
40023;DHT22;25713;-35.352;149.036;2023-02-18T16:15:47;22.20;86.00
40023;DHT22;25713;-35.352;149.036;2023-02-18T16:18:29;22.20;85.80
40023;DHT22;25713;-35.352;149.036;2023-02-18T16:21:04;22.20;85.50
40023;DHT22;25713;-35.352;149.036;2023-02-18T16:23:43;22.20;85.40
40023;DHT22;25713;-35.352;149.036;2023-02-18T16:26:20;22.20;85.50
40023;DHT22;25713;-35.352;149.036;2023-02-18T16:28:51;22.20;85.30
40023;DHT22;25713;-35.352;149.036;2023-02-18T16:31:22;22.20;85.10
40023;DHT22;25713;-35.352;149.036;2023-02-18T16:33:51;22.20;84.40
40023;DHT22;25713;-35.352;149.036;2023-02-18T16:36:21;22.20;84.40
40023;DHT22;25713;-35.352;149.036;2023-02-18T16:38:53;22.20;84.30
40023;DHT22;25713;-35.352;149.036;2023-02-18T16:41:23;22.10;84.30
40023;DHT22;25713;-35.352;149.036;2023-02-18T16:43:52;22.10;83.80
40023;DHT22;25713;-35.352;149.036;2023-02-18T16:46:23;22.10;83.30
40023;DHT22;25713;-35.352;149.036;2023-02-18T16:48:53;22.10;83.80